MSR750 LGAV-HECA
Flight info
| Callsign | MSR750 |
|---|---|
| Flight time | 1h 32m |
| Altitude | 37000 |
| Route | KEA UN132 KUPIS DCT LAPSO UN132 KUMBI L612 BLT A16 CVO |
| Aircraft | B738/M-SDE2E3FGHIRWXY/LB1 |
Departure
| Time | 2026-05-03 21:29 |
|---|---|
| Airport | Athens Eleftherios Venizelos International Airport (LGAV) |
Arrival
| Time | 2026-05-03 23:01 |
|---|---|
| Airport | Cairo International Airport (HECA) |
| Time | Latitude | Longitude | Altitude | Speed | Heading |
|---|---|---|---|---|---|
| 2026-05-03 21:02 | 37.93411 | 23.94654 | 300 ft | 0 kts | 308° |
| 2026-05-03 21:21 | 37.93396 | 23.94677 | 301 ft | 4 kts | 308° |
| 2026-05-03 21:22 | 37.93384 | 23.94698 | 300 ft | 4 kts | 302° |
| 2026-05-03 21:22 | 37.93375 | 23.94728 | 300 ft | 4 kts | 262° |
| 2026-05-03 21:22 | 37.93384 | 23.94754 | 301 ft | 2 kts | 218° |
| 2026-05-03 21:22 | 37.93386 | 23.94755 | 301 ft | 0 kts | 217° |
| 2026-05-03 21:24 | 37.93380 | 23.94750 | 300 ft | 3 kts | 217° |
| 2026-05-03 21:24 | 37.93350 | 23.94720 | 303 ft | 8 kts | 218° |
| 2026-05-03 21:25 | 37.93289 | 23.94660 | 302 ft | 14 kts | 216° |
| 2026-05-03 21:25 | 37.93191 | 23.94598 | 302 ft | 18 kts | 189° |
| 2026-05-03 21:25 | 37.93069 | 23.94578 | 300 ft | 18 kts | 202° |
| 2026-05-03 21:25 | 37.92970 | 23.94490 | 301 ft | 17 kts | 217° |
| 2026-05-03 21:26 | 37.92879 | 23.94400 | 304 ft | 16 kts | 218° |
| 2026-05-03 21:26 | 37.92790 | 23.94315 | 303 ft | 16 kts | 218° |
| 2026-05-03 21:26 | 37.92704 | 23.94233 | 302 ft | 15 kts | 216° |
| 2026-05-03 21:26 | 37.92621 | 23.94155 | 302 ft | 14 kts | 215° |
| 2026-05-03 21:27 | 37.92542 | 23.94082 | 302 ft | 14 kts | 216° |
| 2026-05-03 21:27 | 37.92462 | 23.94110 | 303 ft | 13 kts | 130° |
| 2026-05-03 21:27 | 37.92415 | 23.94212 | 304 ft | 17 kts | 101° |
| 2026-05-03 21:27 | 37.92438 | 23.94405 | 309 ft | 22 kts | 49° |
| 2026-05-03 21:28 | 37.92552 | 23.94517 | 307 ft | 21 kts | 36° |
| 2026-05-03 21:28 | 37.92826 | 23.94777 | 299 ft | 85 kts | 37° |
| 2026-05-03 21:28 | 37.93478 | 23.95393 | 283 ft | 146 kts | 37° |
| 2026-05-03 21:28 | 37.94371 | 23.96269 | 644 ft | 165 kts | 34° |
| 2026-05-03 21:29 | 37.95275 | 23.97162 | 1470 ft | 157 kts | 33° |
| 2026-05-03 21:29 | 37.96114 | 23.98029 | 2301 ft | 158 kts | 35° |
| 2026-05-03 21:29 | 37.97055 | 23.98933 | 2708 ft | 184 kts | 32° |
| 2026-05-03 21:29 | 37.98148 | 23.99960 | 2946 ft | 207 kts | 37° |
| 2026-05-03 21:30 | 37.98905 | 24.01591 | 3290 ft | 229 kts | 74° |
| 2026-05-03 21:30 | 37.98776 | 24.03656 | 3781 ft | 246 kts | 105° |
| 2026-05-03 21:30 | 37.97815 | 24.05513 | 4261 ft | 265 kts | 133° |
| 2026-05-03 21:30 | 37.96212 | 24.06851 | 4651 ft | 285 kts | 150° |
| 2026-05-03 21:31 | 37.94374 | 24.07927 | 5298 ft | 295 kts | 153° |
| 2026-05-03 21:31 | 37.92474 | 24.08960 | 5851 ft | 298 kts | 154° |
| 2026-05-03 21:31 | 37.90572 | 24.09991 | 6001 ft | 298 kts | 154° |
| 2026-05-03 21:31 | 37.88664 | 24.11040 | 5995 ft | 297 kts | 153° |
| 2026-05-03 21:32 | 37.86769 | 24.12099 | 6159 ft | 301 kts | 153° |
| 2026-05-03 21:32 | 37.84856 | 24.13180 | 7005 ft | 299 kts | 153° |
| 2026-05-03 21:32 | 37.82968 | 24.14255 | 7853 ft | 299 kts | 153° |
| 2026-05-03 21:32 | 37.81048 | 24.15354 | 8541 ft | 306 kts | 154° |
| 2026-05-03 21:33 | 37.79097 | 24.16474 | 9314 ft | 308 kts | 154° |
| 2026-05-03 21:33 | 37.77141 | 24.17597 | 10094 ft | 312 kts | 154° |
| 2026-05-03 21:33 | 37.75118 | 24.18760 | 10424 ft | 330 kts | 154° |
| 2026-05-03 21:33 | 37.72958 | 24.20003 | 10605 ft | 352 kts | 155° |
| 2026-05-03 21:34 | 37.70671 | 24.21318 | 10911 ft | 368 kts | 155° |
| 2026-05-03 21:34 | 37.68340 | 24.22655 | 11655 ft | 368 kts | 155° |
| 2026-05-03 21:34 | 37.66004 | 24.23995 | 12378 ft | 372 kts | 155° |
| 2026-05-03 21:34 | 37.63618 | 24.25365 | 12973 ft | 380 kts | 155° |
| 2026-05-03 21:35 | 37.61197 | 24.26753 | 13630 ft | 385 kts | 155° |
| 2026-05-03 21:35 | 37.58738 | 24.28160 | 14323 ft | 389 kts | 155° |
| 2026-05-03 21:35 | 37.56317 | 24.29689 | 15036 ft | 391 kts | 147° |
| 2026-05-03 21:35 | 37.54122 | 24.31722 | 15754 ft | 392 kts | 136° |
| 2026-05-03 21:36 | 37.52156 | 24.34114 | 16477 ft | 394 kts | 133° |
| 2026-05-03 21:36 | 37.50210 | 24.36566 | 17146 ft | 398 kts | 132° |
| 2026-05-03 21:36 | 37.48244 | 24.39058 | 17814 ft | 402 kts | 131° |
| 2026-05-03 21:36 | 37.46264 | 24.41558 | 18508 ft | 405 kts | 132° |
| 2026-05-03 21:37 | 37.44261 | 24.44071 | 19135 ft | 408 kts | 132° |
| 2026-05-03 21:37 | 37.42238 | 24.46595 | 19683 ft | 412 kts | 133° |
| 2026-05-03 21:37 | 37.40201 | 24.49122 | 20399 ft | 412 kts | 132° |
| 2026-05-03 21:37 | 37.38147 | 24.51666 | 20900 ft | 416 kts | 133° |
| 2026-05-03 21:38 | 37.36076 | 24.54225 | 21531 ft | 418 kts | 133° |
| 2026-05-03 21:38 | 37.34005 | 24.56782 | 22189 ft | 419 kts | 133° |
| 2026-05-03 21:38 | 37.31923 | 24.59349 | 22786 ft | 420 kts | 134° |
| 2026-05-03 21:38 | 37.29838 | 24.61918 | 23480 ft | 419 kts | 134° |
| 2026-05-03 21:39 | 37.27746 | 24.64493 | 23824 ft | 427 kts | 133° |
| 2026-05-03 21:39 | 37.25618 | 24.67111 | 24270 ft | 429 kts | 134° |
| 2026-05-03 21:39 | 37.23470 | 24.69753 | 24544 ft | 437 kts | 134° |
| 2026-05-03 21:39 | 37.21279 | 24.72446 | 24809 ft | 443 kts | 134° |
| 2026-05-03 21:40 | 37.19076 | 24.75149 | 25303 ft | 443 kts | 134° |
| 2026-05-03 21:40 | 37.16858 | 24.77870 | 25632 ft | 448 kts | 134° |
| 2026-05-03 21:40 | 37.14622 | 24.80609 | 26023 ft | 451 kts | 134° |
| 2026-05-03 21:40 | 37.12363 | 24.83374 | 26346 ft | 456 kts | 134° |
| 2026-05-03 21:41 | 37.10089 | 24.86157 | 26677 ft | 460 kts | 134° |
| 2026-05-03 21:41 | 37.07789 | 24.88967 | 27001 ft | 464 kts | 134° |
| 2026-05-03 21:41 | 37.05463 | 24.91807 | 27227 ft | 470 kts | 134° |
| 2026-05-03 21:41 | 37.03115 | 24.94672 | 27570 ft | 473 kts | 134° |
| 2026-05-03 21:42 | 37.00752 | 24.97552 | 27919 ft | 476 kts | 134° |
| 2026-05-03 21:42 | 36.98368 | 25.00455 | 28219 ft | 480 kts | 134° |
| 2026-05-03 21:42 | 36.95975 | 25.03368 | 28663 ft | 480 kts | 134° |
| 2026-05-03 21:42 | 36.93608 | 25.06245 | 29004 ft | 483 kts | 134° |
| 2026-05-03 21:43 | 36.91190 | 25.09177 | 29264 ft | 487 kts | 135° |
| 2026-05-03 21:43 | 36.88734 | 25.12116 | 29519 ft | 491 kts | 135° |
| 2026-05-03 21:43 | 36.86251 | 25.15057 | 29793 ft | 494 kts | 135° |
| 2026-05-03 21:43 | 36.83747 | 25.18013 | 30068 ft | 497 kts | 135° |
| 2026-05-03 21:44 | 36.81234 | 25.20981 | 30292 ft | 500 kts | 135° |
| 2026-05-03 21:44 | 36.78700 | 25.23974 | 30527 ft | 501 kts | 135° |
| 2026-05-03 21:44 | 36.76160 | 25.26977 | 30671 ft | 506 kts | 135° |
| 2026-05-03 21:44 | 36.73598 | 25.30006 | 30840 ft | 509 kts | 135° |
| 2026-05-03 21:45 | 36.71024 | 25.33048 | 31203 ft | 508 kts | 135° |
| 2026-05-03 21:45 | 36.68478 | 25.36053 | 31849 ft | 500 kts | 136° |
| 2026-05-03 21:45 | 36.65970 | 25.39009 | 32346 ft | 496 kts | 136° |
| 2026-05-03 21:45 | 36.63464 | 25.41983 | 32537 ft | 499 kts | 135° |
| 2026-05-03 21:46 | 36.60966 | 25.45008 | 32675 ft | 503 kts | 135° |
| 2026-05-03 21:46 | 36.58473 | 25.48055 | 32930 ft | 504 kts | 135° |
| 2026-05-03 21:46 | 36.55977 | 25.51112 | 33285 ft | 502 kts | 135° |
| 2026-05-03 21:46 | 36.53491 | 25.54149 | 33633 ft | 501 kts | 135° |
| 2026-05-03 21:47 | 36.50999 | 25.57184 | 33908 ft | 501 kts | 135° |
| 2026-05-03 21:47 | 36.48501 | 25.60218 | 34135 ft | 502 kts | 136° |
| 2026-05-03 21:47 | 36.45997 | 25.63252 | 34258 ft | 505 kts | 136° |
| 2026-05-03 21:47 | 36.43471 | 25.66308 | 34462 ft | 506 kts | 136° |
| 2026-05-03 21:48 | 36.40963 | 25.69340 | 34824 ft | 502 kts | 136° |
| 2026-05-03 21:48 | 36.38463 | 25.72359 | 35156 ft | 500 kts | 136° |
| 2026-05-03 21:48 | 36.35972 | 25.75365 | 35391 ft | 500 kts | 136° |
| 2026-05-03 21:48 | 36.33478 | 25.78373 | 35592 ft | 500 kts | 136° |
| 2026-05-03 21:49 | 36.30984 | 25.81377 | 35804 ft | 500 kts | 136° |
| 2026-05-03 21:49 | 36.28495 | 25.84374 | 36040 ft | 499 kts | 137° |
| 2026-05-03 21:49 | 36.26002 | 25.87373 | 36312 ft | 498 kts | 137° |
| 2026-05-03 21:49 | 36.23519 | 25.90355 | 36585 ft | 496 kts | 137° |
| 2026-05-03 21:50 | 36.21035 | 25.93310 | 36834 ft | 495 kts | 137° |
| 2026-05-03 21:50 | 36.18554 | 25.96238 | 37020 ft | 495 kts | 138° |
| 2026-05-03 21:50 | 36.13525 | 26.02141 | 37025 ft | 500 kts | 138° |
| 2026-05-03 21:51 | 36.08484 | 26.08057 | 37014 ft | 497 kts | 138° |
| 2026-05-03 21:51 | 36.03481 | 26.13929 | 37013 ft | 495 kts | 138° |
| 2026-05-03 21:52 | 35.98527 | 26.19737 | 37015 ft | 493 kts | 138° |
| 2026-05-03 21:52 | 35.93522 | 26.25592 | 37016 ft | 492 kts | 138° |
| 2026-05-03 21:53 | 35.88594 | 26.31347 | 37008 ft | 491 kts | 139° |
| 2026-05-03 21:53 | 35.83586 | 26.37183 | 36991 ft | 492 kts | 139° |
| 2026-05-03 21:54 | 35.78608 | 26.42975 | 36999 ft | 493 kts | 139° |
| 2026-05-03 21:54 | 35.73645 | 26.48738 | 37002 ft | 495 kts | 139° |
| 2026-05-03 21:55 | 35.68585 | 26.54603 | 36992 ft | 498 kts | 139° |
| 2026-05-03 21:55 | 35.63569 | 26.60408 | 37001 ft | 500 kts | 139° |
| 2026-05-03 21:56 | 35.58490 | 26.66274 | 36981 ft | 501 kts | 139° |
| 2026-05-03 21:56 | 35.53407 | 26.72136 | 36955 ft | 502 kts | 140° |
| 2026-05-03 21:57 | 35.48314 | 26.77998 | 36951 ft | 501 kts | 140° |
| 2026-05-03 21:57 | 35.43228 | 26.83840 | 36945 ft | 500 kts | 140° |
| 2026-05-03 21:58 | 35.38157 | 26.89656 | 36944 ft | 499 kts | 141° |
| 2026-05-03 21:58 | 35.33091 | 26.95454 | 36922 ft | 497 kts | 141° |
| 2026-05-03 21:59 | 35.28042 | 27.01223 | 36925 ft | 495 kts | 141° |
| 2026-05-03 21:59 | 35.23010 | 27.06963 | 36930 ft | 494 kts | 141° |
| 2026-05-03 22:00 | 35.17995 | 27.12673 | 36933 ft | 492 kts | 141° |
| 2026-05-03 22:00 | 35.12988 | 27.18365 | 36968 ft | 491 kts | 141° |
| 2026-05-03 22:01 | 35.07984 | 27.24043 | 36962 ft | 491 kts | 141° |
| 2026-05-03 22:01 | 35.03024 | 27.29657 | 36977 ft | 492 kts | 142° |
| 2026-05-03 22:02 | 34.97983 | 27.35339 | 36977 ft | 494 kts | 142° |
| 2026-05-03 22:02 | 34.92926 | 27.41029 | 36971 ft | 496 kts | 142° |
| 2026-05-03 22:03 | 34.87844 | 27.46741 | 36976 ft | 498 kts | 142° |
| 2026-05-03 22:03 | 34.83596 | 27.51509 | 36975 ft | 501 kts | 142° |
| 2026-05-03 22:04 | 34.78462 | 27.57263 | 36984 ft | 504 kts | 142° |
| 2026-05-03 22:04 | 34.73284 | 27.63054 | 36975 ft | 507 kts | 142° |
| 2026-05-03 22:05 | 34.68083 | 27.68863 | 36971 ft | 508 kts | 142° |
| 2026-05-03 22:05 | 34.62867 | 27.74679 | 36968 ft | 509 kts | 142° |
| 2026-05-03 22:06 | 34.57656 | 27.80478 | 36970 ft | 508 kts | 142° |
| 2026-05-03 22:06 | 34.52450 | 27.86262 | 36965 ft | 507 kts | 142° |
| 2026-05-03 22:07 | 34.47246 | 27.92032 | 36972 ft | 506 kts | 142° |
| 2026-05-03 22:07 | 34.42065 | 27.97766 | 36990 ft | 505 kts | 142° |
| 2026-05-03 22:08 | 34.36869 | 28.03508 | 36977 ft | 504 kts | 142° |
| 2026-05-03 22:08 | 34.31693 | 28.09217 | 36983 ft | 503 kts | 143° |
| 2026-05-03 22:09 | 34.26527 | 28.14905 | 36967 ft | 501 kts | 143° |
| 2026-05-03 22:10 | 34.18784 | 28.23410 | 36976 ft | 501 kts | 143° |
| 2026-05-03 22:10 | 34.13629 | 28.29061 | 36982 ft | 501 kts | 143° |
| 2026-05-03 22:11 | 34.08460 | 28.34717 | 36980 ft | 501 kts | 143° |
| 2026-05-03 22:11 | 34.03296 | 28.40359 | 36982 ft | 502 kts | 144° |
| 2026-05-03 22:12 | 33.98122 | 28.46003 | 36980 ft | 502 kts | 144° |
| 2026-05-03 22:12 | 33.92943 | 28.51641 | 36978 ft | 501 kts | 145° |
| 2026-05-03 22:13 | 33.87765 | 28.57269 | 36981 ft | 502 kts | 145° |
| 2026-05-03 22:13 | 33.82576 | 28.62900 | 36988 ft | 502 kts | 145° |
| 2026-05-03 22:14 | 33.77384 | 28.68526 | 36982 ft | 502 kts | 145° |
| 2026-05-03 22:14 | 33.72190 | 28.74145 | 36982 ft | 503 kts | 145° |
| 2026-05-03 22:15 | 33.67032 | 28.79825 | 36984 ft | 504 kts | 144° |
| 2026-05-03 22:15 | 33.61930 | 28.85584 | 36987 ft | 503 kts | 144° |
| 2026-05-03 22:16 | 33.56837 | 28.91329 | 36982 ft | 503 kts | 144° |
| 2026-05-03 22:16 | 33.51730 | 28.97053 | 36989 ft | 502 kts | 145° |
| 2026-05-03 22:17 | 33.46623 | 29.02757 | 36990 ft | 502 kts | 145° |
| 2026-05-03 22:17 | 33.41499 | 29.08468 | 36989 ft | 503 kts | 145° |
| 2026-05-03 22:18 | 33.36383 | 29.14162 | 36997 ft | 503 kts | 145° |
| 2026-05-03 22:18 | 33.31261 | 29.19854 | 36968 ft | 502 kts | 146° |
| 2026-05-03 22:19 | 33.26144 | 29.25531 | 36987 ft | 502 kts | 146° |
| 2026-05-03 22:19 | 33.21029 | 29.31196 | 36996 ft | 502 kts | 146° |
| 2026-05-03 22:20 | 33.15905 | 29.36860 | 37006 ft | 502 kts | 146° |
| 2026-05-03 22:20 | 33.10779 | 29.42519 | 37010 ft | 502 kts | 146° |
| 2026-05-03 22:21 | 33.05665 | 29.48154 | 37008 ft | 502 kts | 146° |
| 2026-05-03 22:21 | 33.00521 | 29.53813 | 36959 ft | 502 kts | 146° |
| 2026-05-03 22:22 | 32.95386 | 29.59455 | 37006 ft | 501 kts | 146° |
| 2026-05-03 22:22 | 32.90293 | 29.65039 | 37012 ft | 501 kts | 146° |
| 2026-05-03 22:23 | 32.85165 | 29.70652 | 37017 ft | 501 kts | 146° |
| 2026-05-03 22:23 | 32.80030 | 29.76264 | 37006 ft | 501 kts | 146° |
| 2026-05-03 22:24 | 32.74896 | 29.81866 | 37016 ft | 501 kts | 147° |
| 2026-05-03 22:24 | 32.69765 | 29.87457 | 37015 ft | 500 kts | 147° |
| 2026-05-03 22:25 | 32.64639 | 29.93035 | 37022 ft | 499 kts | 147° |
| 2026-05-03 22:25 | 32.59523 | 29.98590 | 37011 ft | 498 kts | 147° |
| 2026-05-03 22:26 | 32.54412 | 30.04131 | 37030 ft | 498 kts | 147° |
| 2026-05-03 22:26 | 32.49302 | 30.09664 | 37022 ft | 498 kts | 147° |
| 2026-05-03 22:27 | 32.44190 | 30.15183 | 37016 ft | 497 kts | 147° |
| 2026-05-03 22:27 | 32.39084 | 30.20684 | 37024 ft | 496 kts | 147° |
| 2026-05-03 22:28 | 32.33980 | 30.26175 | 36968 ft | 495 kts | 147° |
| 2026-05-03 22:28 | 32.28891 | 30.31645 | 37026 ft | 493 kts | 147° |
| 2026-05-03 22:29 | 32.23814 | 30.37092 | 37030 ft | 493 kts | 148° |
| 2026-05-03 22:29 | 32.18742 | 30.42525 | 37028 ft | 491 kts | 148° |
| 2026-05-03 22:30 | 32.13683 | 30.47936 | 37025 ft | 490 kts | 148° |
| 2026-05-03 22:30 | 32.08634 | 30.53328 | 37031 ft | 489 kts | 148° |
| 2026-05-03 22:31 | 32.03590 | 30.58706 | 37037 ft | 488 kts | 148° |
| 2026-05-03 22:31 | 31.98547 | 30.64072 | 36806 ft | 491 kts | 148° |
| 2026-05-03 22:31 | 31.96008 | 30.66766 | 36275 ft | 493 kts | 148° |
| 2026-05-03 22:32 | 31.93465 | 30.69470 | 35701 ft | 491 kts | 149° |
| 2026-05-03 22:32 | 31.90930 | 30.72163 | 35082 ft | 492 kts | 149° |
| 2026-05-03 22:32 | 31.88394 | 30.74857 | 34642 ft | 489 kts | 149° |
| 2026-05-03 22:32 | 31.85876 | 30.77531 | 34167 ft | 486 kts | 150° |
| 2026-05-03 22:33 | 31.83375 | 30.80184 | 33674 ft | 483 kts | 150° |
| 2026-05-03 22:33 | 31.80917 | 30.82788 | 33205 ft | 480 kts | 150° |
| 2026-05-03 22:33 | 31.78413 | 30.85438 | 32753 ft | 476 kts | 150° |
| 2026-05-03 22:33 | 31.76008 | 30.87980 | 32318 ft | 472 kts | 150° |
| 2026-05-03 22:34 | 31.73571 | 30.90555 | 31881 ft | 469 kts | 150° |
| 2026-05-03 22:34 | 31.71148 | 30.93110 | 31456 ft | 465 kts | 150° |
| 2026-05-03 22:34 | 31.68755 | 30.95632 | 30980 ft | 462 kts | 150° |
| 2026-05-03 22:34 | 31.66368 | 30.98146 | 30575 ft | 458 kts | 150° |
| 2026-05-03 22:35 | 31.64019 | 31.00620 | 30182 ft | 455 kts | 150° |
| 2026-05-03 22:35 | 31.61650 | 31.03112 | 29703 ft | 452 kts | 150° |
| 2026-05-03 22:35 | 31.59315 | 31.05566 | 29254 ft | 448 kts | 150° |
| 2026-05-03 22:35 | 31.57005 | 31.07995 | 28821 ft | 444 kts | 150° |
| 2026-05-03 22:36 | 31.54646 | 31.10236 | 28406 ft | 427 kts | 160° |
| 2026-05-03 22:36 | 31.52105 | 31.11846 | 28014 ft | 405 kts | 170° |
| 2026-05-03 22:36 | 31.49456 | 31.12938 | 27390 ft | 392 kts | 179° |
| 2026-05-03 22:36 | 31.46831 | 31.13501 | 26994 ft | 378 kts | 185° |
| 2026-05-03 22:37 | 31.44243 | 31.13950 | 26579 ft | 375 kts | 185° |
| 2026-05-03 22:37 | 31.41667 | 31.14401 | 26174 ft | 373 kts | 185° |
| 2026-05-03 22:37 | 31.39107 | 31.14856 | 25738 ft | 371 kts | 185° |
| 2026-05-03 22:37 | 31.36570 | 31.15315 | 25355 ft | 368 kts | 185° |
| 2026-05-03 22:38 | 31.34045 | 31.15777 | 24994 ft | 365 kts | 185° |
| 2026-05-03 22:38 | 31.31573 | 31.16230 | 24617 ft | 364 kts | 185° |
| 2026-05-03 22:38 | 31.29077 | 31.16688 | 24223 ft | 362 kts | 184° |
| 2026-05-03 22:38 | 31.26595 | 31.17143 | 23828 ft | 361 kts | 184° |
| 2026-05-03 22:39 | 31.24114 | 31.17598 | 23386 ft | 360 kts | 184° |
| 2026-05-03 22:39 | 31.21628 | 31.18058 | 22846 ft | 362 kts | 184° |
| 2026-05-03 22:39 | 31.19149 | 31.18522 | 22447 ft | 359 kts | 184° |
| 2026-05-03 22:39 | 31.16700 | 31.18983 | 22049 ft | 357 kts | 184° |
| 2026-05-03 22:40 | 31.14249 | 31.19445 | 21629 ft | 354 kts | 184° |
| 2026-05-03 22:40 | 31.11835 | 31.19900 | 21291 ft | 350 kts | 184° |
| 2026-05-03 22:40 | 31.09450 | 31.20347 | 20930 ft | 348 kts | 184° |
| 2026-05-03 22:40 | 31.07055 | 31.20794 | 20550 ft | 345 kts | 183° |
| 2026-05-03 22:41 | 31.04693 | 31.21235 | 20185 ft | 343 kts | 183° |
| 2026-05-03 22:41 | 31.02334 | 31.21674 | 19820 ft | 342 kts | 183° |
| 2026-05-03 22:41 | 31.00002 | 31.22108 | 19461 ft | 340 kts | 183° |
| 2026-05-03 22:41 | 30.97665 | 31.22542 | 19098 ft | 339 kts | 183° |
| 2026-05-03 22:42 | 30.95338 | 31.22975 | 18728 ft | 338 kts | 183° |
| 2026-05-03 22:42 | 30.93020 | 31.23405 | 18366 ft | 337 kts | 182° |
| 2026-05-03 22:42 | 30.90707 | 31.23835 | 17958 ft | 336 kts | 182° |
| 2026-05-03 22:42 | 30.88405 | 31.24263 | 17531 ft | 334 kts | 182° |
| 2026-05-03 22:43 | 30.86118 | 31.24689 | 17180 ft | 331 kts | 182° |
| 2026-05-03 22:43 | 30.83877 | 31.25108 | 16843 ft | 329 kts | 182° |
| 2026-05-03 22:43 | 30.81621 | 31.25527 | 16487 ft | 326 kts | 182° |
| 2026-05-03 22:43 | 30.79388 | 31.25941 | 16140 ft | 324 kts | 182° |
| 2026-05-03 22:44 | 30.77172 | 31.26352 | 15790 ft | 323 kts | 182° |
| 2026-05-03 22:44 | 30.74951 | 31.26763 | 15441 ft | 321 kts | 182° |
| 2026-05-03 22:44 | 30.72730 | 31.27174 | 15099 ft | 319 kts | 182° |
| 2026-05-03 22:44 | 30.70563 | 31.27575 | 14748 ft | 318 kts | 182° |
| 2026-05-03 22:45 | 30.68398 | 31.27976 | 14405 ft | 317 kts | 181° |
| 2026-05-03 22:45 | 30.66212 | 31.28380 | 14065 ft | 315 kts | 181° |
| 2026-05-03 22:45 | 30.64021 | 31.28785 | 13678 ft | 314 kts | 181° |
| 2026-05-03 22:45 | 30.61895 | 31.29177 | 13317 ft | 313 kts | 181° |
| 2026-05-03 22:46 | 30.59751 | 31.29574 | 12961 ft | 311 kts | 181° |
| 2026-05-03 22:46 | 30.57629 | 31.29966 | 12619 ft | 309 kts | 180° |
| 2026-05-03 22:46 | 30.55506 | 31.30358 | 12272 ft | 307 kts | 180° |
| 2026-05-03 22:46 | 30.53401 | 31.30746 | 11943 ft | 306 kts | 180° |
| 2026-05-03 22:47 | 30.51983 | 31.31008 | 11704 ft | 305 kts | 180° |
| 2026-05-03 22:47 | 30.49894 | 31.31393 | 11370 ft | 303 kts | 180° |
| 2026-05-03 22:47 | 30.47818 | 31.31776 | 11034 ft | 302 kts | 180° |
| 2026-05-03 22:47 | 30.45750 | 31.32156 | 10714 ft | 300 kts | 179° |
| 2026-05-03 22:48 | 30.43696 | 31.32533 | 10465 ft | 296 kts | 179° |
| 2026-05-03 22:48 | 30.41699 | 31.32900 | 10346 ft | 287 kts | 179° |
| 2026-05-03 22:48 | 30.39752 | 31.33258 | 10214 ft | 279 kts | 179° |
| 2026-05-03 22:48 | 30.37855 | 31.33605 | 10073 ft | 271 kts | 179° |
| 2026-05-03 22:49 | 30.36003 | 31.33942 | 9817 ft | 269 kts | 179° |
| 2026-05-03 22:49 | 30.34158 | 31.34276 | 9551 ft | 267 kts | 179° |
| 2026-05-03 22:49 | 30.32331 | 31.34678 | 9274 ft | 270 kts | 172° |
| 2026-05-03 22:49 | 30.30530 | 31.35266 | 9014 ft | 269 kts | 171° |
| 2026-05-03 22:50 | 30.28743 | 31.35877 | 8734 ft | 268 kts | 171° |
| 2026-05-03 22:50 | 30.26951 | 31.36492 | 8358 ft | 270 kts | 171° |
| 2026-05-03 22:50 | 30.25119 | 31.37108 | 7966 ft | 276 kts | 171° |
| 2026-05-03 22:50 | 30.23270 | 31.37719 | 7625 ft | 277 kts | 170° |
| 2026-05-03 22:51 | 30.21411 | 31.38321 | 7293 ft | 278 kts | 170° |
| 2026-05-03 22:51 | 30.19532 | 31.38917 | 6947 ft | 279 kts | 170° |
| 2026-05-03 22:51 | 30.17655 | 31.39499 | 6617 ft | 280 kts | 170° |
| 2026-05-03 22:51 | 30.15773 | 31.40087 | 6263 ft | 282 kts | 166° |
| 2026-05-03 22:52 | 30.14078 | 31.41232 | 5883 ft | 292 kts | 139° |
| 2026-05-03 22:52 | 30.12944 | 31.43195 | 5528 ft | 298 kts | 111° |
| 2026-05-03 22:52 | 30.12538 | 31.45539 | 5209 ft | 298 kts | 97° |
| 2026-05-03 22:52 | 30.12351 | 31.47917 | 4924 ft | 295 kts | 95° |
| 2026-05-03 22:53 | 30.12192 | 31.50243 | 4834 ft | 285 kts | 95° |
| 2026-05-03 22:53 | 30.12045 | 31.52478 | 4771 ft | 274 kts | 92° |
| 2026-05-03 22:53 | 30.12274 | 31.54612 | 4709 ft | 264 kts | 75° |
| 2026-05-03 22:53 | 30.12724 | 31.56645 | 4515 ft | 260 kts | 75° |
| 2026-05-03 22:54 | 30.13169 | 31.58666 | 4264 ft | 259 kts | 75° |
| 2026-05-03 22:54 | 30.13605 | 31.60674 | 4018 ft | 258 kts | 75° |
| 2026-05-03 22:54 | 30.14036 | 31.62676 | 3764 ft | 256 kts | 73° |
| 2026-05-03 22:54 | 30.14788 | 31.64500 | 3485 ft | 250 kts | 45° |
| 2026-05-03 22:55 | 30.16160 | 31.65644 | 3260 ft | 241 kts | 23° |
| 2026-05-03 22:55 | 30.17539 | 31.66753 | 3009 ft | 243 kts | 35° |
| 2026-05-03 22:55 | 30.18977 | 31.67633 | 2733 ft | 235 kts | 7° |
| 2026-05-03 22:55 | 30.20529 | 31.67503 | 2629 ft | 220 kts | 335° |
| 2026-05-03 22:56 | 30.21691 | 31.66433 | 2517 ft | 210 kts | 302° |
| 2026-05-03 22:56 | 30.22069 | 31.64855 | 2410 ft | 204 kts | 268° |
| 2026-05-03 22:56 | 30.21902 | 31.63284 | 2336 ft | 196 kts | 265° |
| 2026-05-03 22:56 | 30.21717 | 31.61736 | 2258 ft | 190 kts | 264° |
| 2026-05-03 22:57 | 30.21542 | 31.60259 | 2141 ft | 181 kts | 265° |
| 2026-05-03 22:57 | 30.21368 | 31.58846 | 2108 ft | 178 kts | 265° |
| 2026-05-03 22:57 | 30.21138 | 31.57445 | 2089 ft | 178 kts | 251° |
| 2026-05-03 22:57 | 30.20422 | 31.56296 | 2113 ft | 177 kts | 234° |
| 2026-05-03 22:58 | 30.19663 | 31.55234 | 2093 ft | 164 kts | 235° |
| 2026-05-03 22:58 | 30.18957 | 31.54268 | 2127 ft | 155 kts | 234° |
| 2026-05-03 22:58 | 30.18241 | 31.53302 | 2098 ft | 155 kts | 234° |
| 2026-05-03 22:58 | 30.17550 | 31.52379 | 2090 ft | 150 kts | 234° |
| 2026-05-03 22:59 | 30.16863 | 31.51457 | 1932 ft | 153 kts | 234° |
| 2026-05-03 22:59 | 30.16166 | 31.50525 | 1726 ft | 153 kts | 234° |
| 2026-05-03 22:59 | 30.15476 | 31.49599 | 1531 ft | 151 kts | 234° |
| 2026-05-03 22:59 | 30.14792 | 31.48686 | 1330 ft | 150 kts | 234° |
| 2026-05-03 23:00 | 30.14114 | 31.47775 | 1123 ft | 150 kts | 234° |
| 2026-05-03 23:00 | 30.13432 | 31.46860 | 900 ft | 151 kts | 232° |
| 2026-05-03 23:00 | 30.12745 | 31.45945 | 691 ft | 152 kts | 233° |
| 2026-05-03 23:00 | 30.12054 | 31.45024 | 501 ft | 151 kts | 233° |
| 2026-05-03 23:01 | 30.11405 | 31.44147 | 448 ft | 131 kts | 227° |
| 2026-05-03 23:01 | 30.10888 | 31.43467 | 447 ft | 96 kts | 229° |
| 2026-05-03 23:01 | 30.10646 | 31.43143 | 448 ft | 27 kts | 230° |
| 2026-05-03 23:01 | 30.10551 | 31.42970 | 448 ft | 26 kts | 244° |
| 2026-05-03 23:02 | 30.10490 | 31.42784 | 448 ft | 24 kts | 252° |
| 2026-05-03 23:02 | 30.10448 | 31.42623 | 448 ft | 19 kts | 253° |
| 2026-05-03 23:02 | 30.10384 | 31.42499 | 448 ft | 18 kts | 229° |
| 2026-05-03 23:02 | 30.10304 | 31.42391 | 448 ft | 17 kts | 230° |
| 2026-05-03 23:03 | 30.10227 | 31.42287 | 448 ft | 17 kts | 227° |
| 2026-05-03 23:03 | 30.10152 | 31.42189 | 448 ft | 16 kts | 229° |
| 2026-05-03 23:03 | 30.10080 | 31.42093 | 448 ft | 15 kts | 230° |
| 2026-05-03 23:03 | 30.10012 | 31.42000 | 448 ft | 15 kts | 230° |
| 2026-05-03 23:04 | 30.09945 | 31.41912 | 448 ft | 14 kts | 229° |
| 2026-05-03 23:04 | 30.09883 | 31.41827 | 448 ft | 14 kts | 236° |
| 2026-05-03 23:04 | 30.09893 | 31.41729 | 448 ft | 13 kts | 306° |
| 2026-05-03 23:04 | 30.09908 | 31.41631 | 449 ft | 13 kts | 260° |
| 2026-05-03 23:05 | 30.09892 | 31.41520 | 449 ft | 15 kts | 261° |
| 2026-05-03 23:05 | 30.09872 | 31.41403 | 449 ft | 16 kts | 259° |
| 2026-05-03 23:05 | 30.09850 | 31.41269 | 450 ft | 19 kts | 260° |
| 2026-05-03 23:05 | 30.09824 | 31.41103 | 448 ft | 23 kts | 258° |
| 2026-05-03 23:06 | 30.09792 | 31.40921 | 442 ft | 21 kts | 260° |
| 2026-05-03 23:06 | 30.09775 | 31.40800 | 428 ft | 14 kts | 268° |
| 2026-05-03 23:06 | 30.09833 | 31.40697 | 429 ft | 18 kts | 319° |
| 2026-05-03 23:06 | 30.09941 | 31.40589 | 413 ft | 23 kts | 319° |
| 2026-05-03 23:07 | 30.10067 | 31.40463 | 404 ft | 26 kts | 319° |
| 2026-05-03 23:07 | 30.10214 | 31.40314 | 389 ft | 30 kts | 320° |
| 2026-05-03 23:07 | 30.10357 | 31.40176 | 387 ft | 23 kts | 319° |
| 2026-05-03 23:07 | 30.10410 | 31.40025 | 391 ft | 22 kts | 238° |
| 2026-05-03 23:08 | 30.10312 | 31.39888 | 390 ft | 22 kts | 230° |
| 2026-05-03 23:08 | 30.10216 | 31.39757 | 389 ft | 20 kts | 230° |
| 2026-05-03 23:08 | 30.10131 | 31.39643 | 388 ft | 18 kts | 233° |
| 2026-05-03 23:08 | 30.10197 | 31.39587 | 388 ft | 17 kts | 37° |
| 2026-05-03 23:09 | 30.10280 | 31.39692 | 385 ft | 18 kts | 49° |
| 2026-05-03 23:09 | 30.10378 | 31.39783 | 379 ft | 20 kts | 2° |
| 2026-05-03 23:09 | 30.10503 | 31.39750 | 372 ft | 16 kts | 345° |
| 2026-05-03 23:09 | 30.10613 | 31.39707 | 369 ft | 17 kts | 319° |
| 2026-05-03 23:10 | 30.10610 | 31.39580 | 369 ft | 16 kts | 255° |
| 2026-05-03 23:10 | 30.10638 | 31.39471 | 369 ft | 16 kts | 338° |
| 2026-05-03 23:10 | 30.10742 | 31.39439 | 369 ft | 15 kts | 345° |
| 2026-05-03 23:10 | 30.10821 | 31.39435 | 369 ft | 11 kts | 44° |
| 2026-05-03 23:11 | 30.10833 | 31.39471 | 369 ft | 1 kts | 74° |
| 2026-05-03 23:11 | 30.10837 | 31.39488 | 369 ft | 3 kts | 75° |
| 2026-05-03 23:11 | 30.10841 | 31.39507 | 371 ft | 1 kts | 75° |
| 2026-05-03 23:11 | 30.10841 | 31.39508 | 371 ft | 0 kts | 75° |